sensor_id;sensor_type;location;lat;lon;timestamp;temperature;humidity
20242;DHT22;10279;46.388;8.116;2023-12-04T00:01:48;-2.20;99.90
20242;DHT22;10279;46.388;8.116;2023-12-04T00:04:15;-2.20;99.90
20242;DHT22;10279;46.388;8.116;2023-12-04T00:06:43;-2.20;99.90
20242;DHT22;10279;46.388;8.116;2023-12-04T00:09:10;-2.20;99.90
20242;DHT22;10279;46.388;8.116;2023-12-04T00:11:37;-2.10;99.90
20242;DHT22;10279;46.388;8.116;2023-12-04T00:14:05;-2.00;99.90
20242;DHT22;10279;46.388;8.116;2023-12-04T00:16:35;-2.00;99.90
20242;DHT22;10279;46.388;8.116;2023-12-04T00:19:02;-2.00;99.90
20242;DHT22;10279;46.388;8.116;2023-12-04T00:21:29;-2.10;99.90
20242;DHT22;10279;46.388;8.116;2023-12-04T00:23:57;-2.20;99.90
20242;DHT22;10279;46.388;8.116;2023-12-04T00:26:24;-2.30;99.90
20242;DHT22;10279;46.388;8.116;2023-12-04T00:28:51;-2.30;99.90
20242;DHT22;10279;46.388;8.116;2023-12-04T00:31:18;-2.30;99.90
20242;DHT22;10279;46.388;8.116;2023-12-04T00:33:45;-2.30;99.90
20242;DHT22;10279;46.388;8.116;2023-12-04T00:36:13;-2.30;99.90
20242;DHT22;10279;46.388;8.116;2023-12-04T00:38:40;-2.40;99.90
20242;DHT22;10279;46.388;8.116;2023-12-04T00:41:07;-2.40;99.90
20242;DHT22;10279;46.388;8.116;2023-12-04T00:43:34;-2.50;99.90
20242;DHT22;10279;46.388;8.116;2023-12-04T00:46:02;-2.40;99.90
20242;DHT22;10279;46.388;8.116;2023-12-04T00:48:29;-2.50;99.90
20242;DHT22;10279;46.388;8.116;2023-12-04T00:50:57;-2.40;99.90
20242;DHT22;10279;46.388;8.116;2023-12-04T00:53:25;-2.40;99.90
20242;DHT22;10279;46.388;8.116;2023-12-04T00:55:53;-2.40;99.90
20242;DHT22;10279;46.388;8.116;2023-12-04T00:58:20;-2.50;99.90
20242;DHT22;10279;46.388;8.116;2023-12-04T01:00:47;-2.50;99.90
20242;DHT22;10279;46.388;8.116;2023-12-04T01:03:16;-2.40;99.90
20242;DHT22;10279;46.388;8.116;2023-12-04T01:05:43;-2.50;99.90
20242;DHT22;10279;46.388;8.116;2023-12-04T01:08:10;-2.50;99.90
20242;DHT22;10279;46.388;8.116;2023-12-04T01:10:39;-2.50;99.90
20242;DHT22;10279;46.388;8.116;2023-12-04T01:13:06;-2.60;99.90
20242;DHT22;10279;46.388;8.116;2023-12-04T01:15:33;-2.60;99.90
20242;DHT22;10279;46.388;8.116;2023-12-04T01:18:00;-2.60;99.90
20242;DHT22;10279;46.388;8.116;2023-12-04T01:20:28;-2.60;99.90
20242;DHT22;10279;46.388;8.116;2023-12-04T01:22:56;-2.60;99.90
20242;DHT22;10279;46.388;8.116;2023-12-04T01:25:24;-2.60;99.90
20242;DHT22;10279;46.388;8.116;2023-12-04T01:27:51;-2.60;99.90
20242;DHT22;10279;46.388;8.116;2023-12-04T01:30:18;-2.60;99.90
20242;DHT22;10279;46.388;8.116;2023-12-04T01:32:45;-2.60;99.90
20242;DHT22;10279;46.388;8.116;2023-12-04T01:35:12;-2.60;99.90
20242;DHT22;10279;46.388;8.116;2023-12-04T01:37:39;-2.70;99.90
20242;DHT22;10279;46.388;8.116;2023-12-04T01:40:07;-2.60;99.90
20242;DHT22;10279;46.388;8.116;2023-12-04T01:42:34;-2.50;99.90
20242;DHT22;10279;46.388;8.116;2023-12-04T01:45:01;-2.50;99.90
20242;DHT22;10279;46.388;8.116;2023-12-04T01:47:29;-2.50;99.90
20242;DHT22;10279;46.388;8.116;2023-12-04T01:49:56;-2.50;99.90
20242;DHT22;10279;46.388;8.116;2023-12-04T01:52:23;-2.60;99.90
20242;DHT22;10279;46.388;8.116;2023-12-04T01:54:51;-2.50;99.90
20242;DHT22;10279;46.388;8.116;2023-12-04T01:57:19;-2.50;99.90
20242;DHT22;10279;46.388;8.116;2023-12-04T01:59:46;-2.40;99.90
20242;DHT22;10279;46.388;8.116;2023-12-04T02:02:14;-2.30;99.90
20242;DHT22;10279;46.388;8.116;2023-12-04T02:04:41;-2.20;99.90
20242;DHT22;10279;46.388;8.116;2023-12-04T02:07:08;-2.20;99.90
20242;DHT22;10279;46.388;8.116;2023-12-04T02:09:37;-2.20;99.90
20242;DHT22;10279;46.388;8.116;2023-12-04T02:12:05;-2.20;99.90
20242;DHT22;10279;46.388;8.116;2023-12-04T02:14:33;-2.10;99.90
20242;DHT22;10279;46.388;8.116;2023-12-04T02:17:01;-2.10;99.90
20242;DHT22;10279;46.388;8.116;2023-12-04T02:19:29;-2.10;99.90
20242;DHT22;10279;46.388;8.116;2023-12-04T02:21:57;-2.10;99.90
20242;DHT22;10279;46.388;8.116;2023-12-04T02:24:24;-2.00;99.90
20242;DHT22;10279;46.388;8.116;2023-12-04T02:26:58;-2.00;99.90
20242;DHT22;10279;46.388;8.116;2023-12-04T02:29:39;-2.00;99.90
20242;DHT22;10279;46.388;8.116;2023-12-04T02:32:08;-2.00;99.90
20242;DHT22;10279;46.388;8.116;2023-12-04T02:34:38;-2.00;99.90
20242;DHT22;10279;46.388;8.116;2023-12-04T02:37:08;-1.90;99.90
20242;DHT22;10279;46.388;8.116;2023-12-04T02:39:36;-2.00;99.90
20242;DHT22;10279;46.388;8.116;2023-12-04T02:42:04;-2.00;99.90
20242;DHT22;10279;46.388;8.116;2023-12-04T02:44:31;-2.10;99.90
20242;DHT22;10279;46.388;8.116;2023-12-04T02:46:58;-2.10;99.90
20242;DHT22;10279;46.388;8.116;2023-12-04T02:49:25;-2.10;99.90
20242;DHT22;10279;46.388;8.116;2023-12-04T02:51:53;-2.20;99.90
20242;DHT22;10279;46.388;8.116;2023-12-04T02:54:20;-2.20;99.90
20242;DHT22;10279;46.388;8.116;2023-12-04T02:56:47;-2.10;99.90
20242;DHT22;10279;46.388;8.116;2023-12-04T02:59:14;-2.10;99.90
20242;DHT22;10279;46.388;8.116;2023-12-04T03:01:42;-2.10;99.90
20242;DHT22;10279;46.388;8.116;2023-12-04T03:04:09;-2.20;99.90
20242;DHT22;10279;46.388;8.116;2023-12-04T03:06:36;-2.20;99.90
20242;DHT22;10279;46.388;8.116;2023-12-04T03:09:04;-2.30;99.90
20242;DHT22;10279;46.388;8.116;2023-12-04T03:11:31;-2.30;99.90
20242;DHT22;10279;46.388;8.116;2023-12-04T03:14:00;-2.20;99.90
20242;DHT22;10279;46.388;8.116;2023-12-04T03:16:27;-2.10;99.90
20242;DHT22;10279;46.388;8.116;2023-12-04T03:18:54;-2.00;99.90
20242;DHT22;10279;46.388;8.116;2023-12-04T03:21:22;-2.00;99.90
20242;DHT22;10279;46.388;8.116;2023-12-04T03:23:50;-2.00;99.90
20242;DHT22;10279;46.388;8.116;2023-12-04T03:26:17;-2.10;99.90
20242;DHT22;10279;46.388;8.116;2023-12-04T03:28:44;-2.00;99.90
20242;DHT22;10279;46.388;8.116;2023-12-04T03:31:12;-2.00;99.90
20242;DHT22;10279;46.388;8.116;2023-12-04T03:33:39;-1.90;99.90
20242;DHT22;10279;46.388;8.116;2023-12-04T03:36:07;-1.80;99.90
20242;DHT22;10279;46.388;8.116;2023-12-04T03:38:34;-1.80;99.90
20242;DHT22;10279;46.388;8.116;2023-12-04T03:41:01;-1.80;99.90
20242;DHT22;10279;46.388;8.116;2023-12-04T03:43:28;-1.70;99.90
20242;DHT22;10279;46.388;8.116;2023-12-04T03:45:55;-1.60;99.90
20242;DHT22;10279;46.388;8.116;2023-12-04T03:48:23;-1.70;99.90
20242;DHT22;10279;46.388;8.116;2023-12-04T03:50:50;-1.60;99.90
20242;DHT22;10279;46.388;8.116;2023-12-04T03:53:17;-1.60;99.90
20242;DHT22;10279;46.388;8.116;2023-12-04T03:55:44;-1.50;99.90
20242;DHT22;10279;46.388;8.116;2023-12-04T03:58:11;-1.40;99.90
20242;DHT22;10279;46.388;8.116;2023-12-04T04:00:38;-1.30;99.90
20242;DHT22;10279;46.388;8.116;2023-12-04T04:03:09;-1.10;99.90
20242;DHT22;10279;46.388;8.116;2023-12-04T04:05:36;-1.10;99.90
20242;DHT22;10279;46.388;8.116;2023-12-04T04:08:04;-1.20;99.90
20242;DHT22;10279;46.388;8.116;2023-12-04T04:10:32;-1.20;99.90
20242;DHT22;10279;46.388;8.116;2023-12-04T04:12:59;-1.20;99.90
20242;DHT22;10279;46.388;8.116;2023-12-04T04:15:26;-1.20;99.90
20242;DHT22;10279;46.388;8.116;2023-12-04T04:17:54;-1.10;99.90
20242;DHT22;10279;46.388;8.116;2023-12-04T04:20:22;-1.10;99.90
20242;DHT22;10279;46.388;8.116;2023-12-04T04:22:49;-1.10;99.90
20242;DHT22;10279;46.388;8.116;2023-12-04T04:25:16;-1.10;99.90
20242;DHT22;10279;46.388;8.116;2023-12-04T04:27:44;-1.10;99.90
20242;DHT22;10279;46.388;8.116;2023-12-04T04:30:11;-1.10;99.90
20242;DHT22;10279;46.388;8.116;2023-12-04T04:32:40;-1.00;99.90
20242;DHT22;10279;46.388;8.116;2023-12-04T04:35:08;-1.00;99.90
20242;DHT22;10279;46.388;8.116;2023-12-04T04:37:35;-1.10;99.90
20242;DHT22;10279;46.388;8.116;2023-12-04T04:40:03;-1.10;99.90
20242;DHT22;10279;46.388;8.116;2023-12-04T04:42:30;-1.20;99.90
20242;DHT22;10279;46.388;8.116;2023-12-04T04:44:58;-1.10;99.90
20242;DHT22;10279;46.388;8.116;2023-12-04T04:47:25;-1.20;99.90
20242;DHT22;10279;46.388;8.116;2023-12-04T04:49:52;-1.10;99.90
20242;DHT22;10279;46.388;8.116;2023-12-04T04:52:19;-1.10;99.90
20242;DHT22;10279;46.388;8.116;2023-12-04T04:54:46;-1.10;99.90
20242;DHT22;10279;46.388;8.116;2023-12-04T04:57:14;-1.00;99.90
20242;DHT22;10279;46.388;8.116;2023-12-04T04:59:41;-0.90;99.90
20242;DHT22;10279;46.388;8.116;2023-12-04T05:02:08;-0.90;99.90
20242;DHT22;10279;46.388;8.116;2023-12-04T05:04:36;-0.90;99.90
20242;DHT22;10279;46.388;8.116;2023-12-04T05:07:04;-0.90;99.90
20242;DHT22;10279;46.388;8.116;2023-12-04T05:09:31;-0.90;99.90
20242;DHT22;10279;46.388;8.116;2023-12-04T05:11:58;-0.90;99.90
20242;DHT22;10279;46.388;8.116;2023-12-04T05:14:25;-0.90;99.90
20242;DHT22;10279;46.388;8.116;2023-12-04T05:16:53;-0.90;99.90
20242;DHT22;10279;46.388;8.116;2023-12-04T05:19:21;-0.80;99.90
20242;DHT22;10279;46.388;8.116;2023-12-04T05:21:48;-0.70;99.90
20242;DHT22;10279;46.388;8.116;2023-12-04T05:24:15;-0.70;99.90
20242;DHT22;10279;46.388;8.116;2023-12-04T05:26:43;-0.90;99.90
20242;DHT22;10279;46.388;8.116;2023-12-04T05:29:10;-0.90;99.90
20242;DHT22;10279;46.388;8.116;2023-12-04T05:31:37;-0.90;99.90
20242;DHT22;10279;46.388;8.116;2023-12-04T05:34:04;-0.90;99.90
20242;DHT22;10279;46.388;8.116;2023-12-04T05:36:32;-0.80;99.90
20242;DHT22;10279;46.388;8.116;2023-12-04T05:38:59;-0.80;99.90
20242;DHT22;10279;46.388;8.116;2023-12-04T05:41:27;-0.70;99.90
20242;DHT22;10279;46.388;8.116;2023-12-04T05:43:54;-0.70;99.90
20242;DHT22;10279;46.388;8.116;2023-12-04T05:46:21;-0.60;99.90
20242;DHT22;10279;46.388;8.116;2023-12-04T05:48:49;-0.60;99.90
20242;DHT22;10279;46.388;8.116;2023-12-04T05:51:16;-0.60;99.90
20242;DHT22;10279;46.388;8.116;2023-12-04T05:53:43;-0.70;99.90
20242;DHT22;10279;46.388;8.116;2023-12-04T05:56:10;-0.70;99.90
20242;DHT22;10279;46.388;8.116;2023-12-04T05:58:38;-0.70;99.90
20242;DHT22;10279;46.388;8.116;2023-12-04T06:01:05;-0.70;99.90
20242;DHT22;10279;46.388;8.116;2023-12-04T06:03:33;-0.80;99.90
20242;DHT22;10279;46.388;8.116;2023-12-04T06:06:00;-0.80;99.90
20242;DHT22;10279;46.388;8.116;2023-12-04T06:08:31;-0.70;99.90
20242;DHT22;10279;46.388;8.116;2023-12-04T06:10:58;-0.80;99.90
20242;DHT22;10279;46.388;8.116;2023-12-04T06:13:25;-0.80;99.90
20242;DHT22;10279;46.388;8.116;2023-12-04T06:15:52;-0.80;99.90
20242;DHT22;10279;46.388;8.116;2023-12-04T06:18:19;-0.80;99.90
20242;DHT22;10279;46.388;8.116;2023-12-04T06:20:47;-0.70;99.90
20242;DHT22;10279;46.388;8.116;2023-12-04T06:23:16;-0.60;99.90
20242;DHT22;10279;46.388;8.116;2023-12-04T06:25:43;-0.60;99.90
20242;DHT22;10279;46.388;8.116;2023-12-04T06:28:11;-0.40;99.90
20242;DHT22;10279;46.388;8.116;2023-12-04T06:30:38;-0.40;99.90
20242;DHT22;10279;46.388;8.116;2023-12-04T06:33:06;-0.30;99.90
20242;DHT22;10279;46.388;8.116;2023-12-04T06:35:34;-0.40;99.90
20242;DHT22;10279;46.388;8.116;2023-12-04T06:38:06;-0.40;99.90
20242;DHT22;10279;46.388;8.116;2023-12-04T06:40:34;-0.30;99.90
20242;DHT22;10279;46.388;8.116;2023-12-04T06:43:02;-0.30;99.90
20242;DHT22;10279;46.388;8.116;2023-12-04T06:45:30;-0.30;99.90
20242;DHT22;10279;46.388;8.116;2023-12-04T06:47:59;-0.30;99.90
20242;DHT22;10279;46.388;8.116;2023-12-04T06:50:27;-0.20;99.90
20242;DHT22;10279;46.388;8.116;2023-12-04T06:52:54;-0.20;99.90
20242;DHT22;10279;46.388;8.116;2023-12-04T06:55:23;-0.10;99.90
20242;DHT22;10279;46.388;8.116;2023-12-04T06:57:50;0.00;99.90
20242;DHT22;10279;46.388;8.116;2023-12-04T07:00:17;0.00;99.90
20242;DHT22;10279;46.388;8.116;2023-12-04T07:02:49;0.10;99.90
20242;DHT22;10279;46.388;8.116;2023-12-04T07:05:18;0.10;99.90
20242;DHT22;10279;46.388;8.116;2023-12-04T07:07:46;0.00;99.90
20242;DHT22;10279;46.388;8.116;2023-12-04T07:10:13;0.00;99.90
20242;DHT22;10279;46.388;8.116;2023-12-04T07:12:43;-0.10;99.90
20242;DHT22;10279;46.388;8.116;2023-12-04T07:15:11;0.00;99.90
20242;DHT22;10279;46.388;8.116;2023-12-04T07:17:39;-0.10;99.90
20242;DHT22;10279;46.388;8.116;2023-12-04T07:20:07;-0.20;99.90
20242;DHT22;10279;46.388;8.116;2023-12-04T07:22:35;-0.30;99.90
20242;DHT22;10279;46.388;8.116;2023-12-04T07:25:06;-0.30;99.90
20242;DHT22;10279;46.388;8.116;2023-12-04T07:27:34;-0.30;99.90
20242;DHT22;10279;46.388;8.116;2023-12-04T07:30:02;-0.20;99.90
20242;DHT22;10279;46.388;8.116;2023-12-04T07:32:30;-0.10;99.90
20242;DHT22;10279;46.388;8.116;2023-12-04T07:34:59;-0.10;99.90
20242;DHT22;10279;46.388;8.116;2023-12-04T07:37:27;0.00;99.90
20242;DHT22;10279;46.388;8.116;2023-12-04T07:39:57;0.10;99.90
20242;DHT22;10279;46.388;8.116;2023-12-04T07:42:24;0.10;99.90
20242;DHT22;10279;46.388;8.116;2023-12-04T07:44:51;0.20;99.90
20242;DHT22;10279;46.388;8.116;2023-12-04T07:47:19;0.30;99.90
20242;DHT22;10279;46.388;8.116;2023-12-04T07:49:46;0.30;99.90
20242;DHT22;10279;46.388;8.116;2023-12-04T07:52:14;0.30;99.90
20242;DHT22;10279;46.388;8.116;2023-12-04T07:54:41;0.40;99.90
20242;DHT22;10279;46.388;8.116;2023-12-04T07:57:08;0.50;99.90
20242;DHT22;10279;46.388;8.116;2023-12-04T07:59:35;0.50;99.90
20242;DHT22;10279;46.388;8.116;2023-12-04T08:02:03;0.60;99.90
20242;DHT22;10279;46.388;8.116;2023-12-04T08:04:30;0.70;99.90
20242;DHT22;10279;46.388;8.116;2023-12-04T08:06:57;0.80;99.90
20242;DHT22;10279;46.388;8.116;2023-12-04T08:09:24;1.00;99.90
20242;DHT22;10279;46.388;8.116;2023-12-04T08:11:52;0.80;99.90
20242;DHT22;10279;46.388;8.116;2023-12-04T08:14:24;0.70;99.90
20242;DHT22;10279;46.388;8.116;2023-12-04T08:16:51;0.80;99.90
20242;DHT22;10279;46.388;8.116;2023-12-04T08:19:18;0.90;99.90
20242;DHT22;10279;46.388;8.116;2023-12-04T08:21:45;0.90;99.90
20242;DHT22;10279;46.388;8.116;2023-12-04T08:24:13;0.80;99.90
20242;DHT22;10279;46.388;8.116;2023-12-04T08:26:40;0.70;99.90
20242;DHT22;10279;46.388;8.116;2023-12-04T08:29:07;0.90;99.90
20242;DHT22;10279;46.388;8.116;2023-12-04T08:31:35;1.00;99.90
20242;DHT22;10279;46.388;8.116;2023-12-04T08:34:02;1.20;99.90
20242;DHT22;10279;46.388;8.116;2023-12-04T08:36:29;1.20;99.90
20242;DHT22;10279;46.388;8.116;2023-12-04T08:39:12;1.20;99.90
20242;DHT22;10279;46.388;8.116;2023-12-04T08:41:40;1.30;99.90
20242;DHT22;10279;46.388;8.116;2023-12-04T08:44:17;1.50;99.90
20242;DHT22;10279;46.388;8.116;2023-12-04T08:46:44;1.60;99.90
20242;DHT22;10279;46.388;8.116;2023-12-04T08:49:12;1.70;99.90
20242;DHT22;10279;46.388;8.116;2023-12-04T08:51:39;1.80;99.90
20242;DHT22;10279;46.388;8.116;2023-12-04T08:54:07;1.80;99.90
20242;DHT22;10279;46.388;8.116;2023-12-04T08:56:37;1.90;99.90
20242;DHT22;10279;46.388;8.116;2023-12-04T08:59:04;1.90;99.90
20242;DHT22;10279;46.388;8.116;2023-12-04T09:01:31;2.00;99.90
20242;DHT22;10279;46.388;8.116;2023-12-04T09:03:59;1.90;99.90
20242;DHT22;10279;46.388;8.116;2023-12-04T09:06:26;1.80;99.90
20242;DHT22;10279;46.388;8.116;2023-12-04T09:09:13;1.90;99.90
20242;DHT22;10279;46.388;8.116;2023-12-04T09:11:43;1.90;99.90
20242;DHT22;10279;46.388;8.116;2023-12-04T09:14:10;2.00;99.90
20242;DHT22;10279;46.388;8.116;2023-12-04T09:16:38;2.00;99.90
20242;DHT22;10279;46.388;8.116;2023-12-04T09:19:05;2.00;99.90
20242;DHT22;10279;46.388;8.116;2023-12-04T09:21:32;2.10;99.90
20242;DHT22;10279;46.388;8.116;2023-12-04T09:24:00;2.20;99.90
20242;DHT22;10279;46.388;8.116;2023-12-04T09:26:27;2.20;99.90
20242;DHT22;10279;46.388;8.116;2023-12-04T09:28:54;2.30;99.90
20242;DHT22;10279;46.388;8.116;2023-12-04T09:31:22;2.40;99.90
20242;DHT22;10279;46.388;8.116;2023-12-04T09:33:49;2.50;99.90
20242;DHT22;10279;46.388;8.116;2023-12-04T09:36:16;2.50;99.90
20242;DHT22;10279;46.388;8.116;2023-12-04T09:38:43;2.60;99.90
20242;DHT22;10279;46.388;8.116;2023-12-04T09:41:12;2.70;99.90
20242;DHT22;10279;46.388;8.116;2023-12-04T09:43:40;2.70;99.90
20242;DHT22;10279;46.388;8.116;2023-12-04T09:46:08;2.70;99.90
20242;DHT22;10279;46.388;8.116;2023-12-04T09:48:37;2.80;99.90
20242;DHT22;10279;46.388;8.116;2023-12-04T09:51:06;3.00;99.90
20242;DHT22;10279;46.388;8.116;2023-12-04T09:53:33;3.00;99.90
20242;DHT22;10279;46.388;8.116;2023-12-04T09:56:03;3.10;99.90
20242;DHT22;10279;46.388;8.116;2023-12-04T09:58:31;3.30;99.90
20242;DHT22;10279;46.388;8.116;2023-12-04T10:01:01;3.40;99.90
20242;DHT22;10279;46.388;8.116;2023-12-04T10:03:28;3.60;99.90
20242;DHT22;10279;46.388;8.116;2023-12-04T10:05:57;3.80;99.90
20242;DHT22;10279;46.388;8.116;2023-12-04T10:08:24;4.00;99.90
20242;DHT22;10279;46.388;8.116;2023-12-04T10:10:52;4.20;99.90
20242;DHT22;10279;46.388;8.116;2023-12-04T10:13:19;4.30;99.90
20242;DHT22;10279;46.388;8.116;2023-12-04T10:16:06;4.40;99.90
20242;DHT22;10279;46.388;8.116;2023-12-04T10:18:34;4.50;99.90
20242;DHT22;10279;46.388;8.116;2023-12-04T10:21:01;4.50;99.90
20242;DHT22;10279;46.388;8.116;2023-12-04T10:23:43;4.50;99.90
20242;DHT22;10279;46.388;8.116;2023-12-04T10:26:14;4.50;99.90
20242;DHT22;10279;46.388;8.116;2023-12-04T10:29:00;4.50;99.90
20242;DHT22;10279;46.388;8.116;2023-12-04T10:31:32;4.30;99.90
20242;DHT22;10279;46.388;8.116;2023-12-04T10:34:02;4.30;99.90
20242;DHT22;10279;46.388;8.116;2023-12-04T10:36:32;4.30;99.90
20242;DHT22;10279;46.388;8.116;2023-12-04T10:39:01;4.40;99.90
20242;DHT22;10279;46.388;8.116;2023-12-04T10:41:31;4.50;99.90
20242;DHT22;10279;46.388;8.116;2023-12-04T10:43:59;4.50;99.90
20242;DHT22;10279;46.388;8.116;2023-12-04T10:46:36;4.50;99.90
20242;DHT22;10279;46.388;8.116;2023-12-04T10:49:04;4.50;99.90
20242;DHT22;10279;46.388;8.116;2023-12-04T10:51:33;4.50;99.90
20242;DHT22;10279;46.388;8.116;2023-12-04T10:54:01;4.50;99.90
20242;DHT22;10279;46.388;8.116;2023-12-04T10:56:40;4.50;99.90
20242;DHT22;10279;46.388;8.116;2023-12-04T10:59:18;4.60;99.90
20242;DHT22;10279;46.388;8.116;2023-12-04T11:01:47;4.70;99.90
20242;DHT22;10279;46.388;8.116;2023-12-04T11:04:18;4.90;99.90
20242;DHT22;10279;46.388;8.116;2023-12-04T11:06:51;5.10;99.90
20242;DHT22;10279;46.388;8.116;2023-12-04T11:09:21;5.30;99.90
20242;DHT22;10279;46.388;8.116;2023-12-04T11:11:51;5.60;99.90
20242;DHT22;10279;46.388;8.116;2023-12-04T11:14:22;5.80;99.90
20242;DHT22;10279;46.388;8.116;2023-12-04T11:17:02;6.10;99.90
20242;DHT22;10279;46.388;8.116;2023-12-04T11:22:17;6.70;99.90
20242;DHT22;10279;46.388;8.116;2023-12-04T11:24:50;6.80;99.90
20242;DHT22;10279;46.388;8.116;2023-12-04T11:27:18;7.00;99.90
20242;DHT22;10279;46.388;8.116;2023-12-04T11:29:46;7.40;99.90
20242;DHT22;10279;46.388;8.116;2023-12-04T11:32:15;7.60;99.90
20242;DHT22;10279;46.388;8.116;2023-12-04T11:34:54;7.80;99.90
20242;DHT22;10279;46.388;8.116;2023-12-04T11:37:21;7.90;99.90
20242;DHT22;10279;46.388;8.116;2023-12-04T11:39:49;7.90;99.90
20242;DHT22;10279;46.388;8.116;2023-12-04T11:42:24;7.80;99.90
20242;DHT22;10279;46.388;8.116;2023-12-04T11:44:58;7.70;99.90
20242;DHT22;10279;46.388;8.116;2023-12-04T11:47:28;7.80;99.90
20242;DHT22;10279;46.388;8.116;2023-12-04T11:49:57;8.00;99.90
20242;DHT22;10279;46.388;8.116;2023-12-04T11:52:34;8.20;99.90
20242;DHT22;10279;46.388;8.116;2023-12-04T11:55:04;8.40;99.90
20242;DHT22;10279;46.388;8.116;2023-12-04T11:57:38;8.60;99.90
20242;DHT22;10279;46.388;8.116;2023-12-04T12:00:09;8.70;99.90
20242;DHT22;10279;46.388;8.116;2023-12-04T12:02:38;8.50;99.90
20242;DHT22;10279;46.388;8.116;2023-12-04T12:05:26;8.30;99.90
20242;DHT22;10279;46.388;8.116;2023-12-04T12:07:55;8.00;99.90
20242;DHT22;10279;46.388;8.116;2023-12-04T12:10:22;7.80;99.90
20242;DHT22;10279;46.388;8.116;2023-12-04T12:12:50;7.50;99.90
20242;DHT22;10279;46.388;8.116;2023-12-04T12:15:18;7.50;99.90
20242;DHT22;10279;46.388;8.116;2023-12-04T12:17:45;7.40;99.90
20242;DHT22;10279;46.388;8.116;2023-12-04T12:20:14;7.20;99.90
20242;DHT22;10279;46.388;8.116;2023-12-04T12:22:41;7.00;99.90
20242;DHT22;10279;46.388;8.116;2023-12-04T12:25:11;6.80;99.90
20242;DHT22;10279;46.388;8.116;2023-12-04T12:27:39;6.70;99.90
20242;DHT22;10279;46.388;8.116;2023-12-04T12:30:07;6.60;99.90
20242;DHT22;10279;46.388;8.116;2023-12-04T12:32:34;6.50;99.90
20242;DHT22;10279;46.388;8.116;2023-12-04T12:35:03;6.20;99.90
20242;DHT22;10279;46.388;8.116;2023-12-04T12:37:30;6.10;99.90
20242;DHT22;10279;46.388;8.116;2023-12-04T12:39:57;6.00;99.90
20242;DHT22;10279;46.388;8.116;2023-12-04T12:42:26;5.90;99.90
20242;DHT22;10279;46.388;8.116;2023-12-04T12:44:53;5.90;99.90
20242;DHT22;10279;46.388;8.116;2023-12-04T12:47:23;5.90;99.90
20242;DHT22;10279;46.388;8.116;2023-12-04T12:49:50;5.80;99.90
20242;DHT22;10279;46.388;8.116;2023-12-04T12:52:17;5.80;99.90
20242;DHT22;10279;46.388;8.116;2023-12-04T12:54:45;5.70;99.90
20242;DHT22;10279;46.388;8.116;2023-12-04T12:57:13;5.60;99.90
20242;DHT22;10279;46.388;8.116;2023-12-04T12:59:40;5.60;99.90
20242;DHT22;10279;46.388;8.116;2023-12-04T13:02:08;5.60;99.90
20242;DHT22;10279;46.388;8.116;2023-12-04T13:04:38;5.70;99.90
20242;DHT22;10279;46.388;8.116;2023-12-04T13:07:07;5.80;99.90
20242;DHT22;10279;46.388;8.116;2023-12-04T13:09:35;6.00;99.90
20242;DHT22;10279;46.388;8.116;2023-12-04T13:12:03;6.20;99.90
20242;DHT22;10279;46.388;8.116;2023-12-04T13:14:33;6.50;99.90
20242;DHT22;10279;46.388;8.116;2023-12-04T13:17:02;6.80;99.90
20242;DHT22;10279;46.388;8.116;2023-12-04T13:19:29;7.20;99.90
20242;DHT22;10279;46.388;8.116;2023-12-04T13:21:58;7.50;99.90
20242;DHT22;10279;46.388;8.116;2023-12-04T13:24:25;7.60;99.90
20242;DHT22;10279;46.388;8.116;2023-12-04T13:26:52;7.60;99.90
20242;DHT22;10279;46.388;8.116;2023-12-04T13:29:20;7.50;99.90
20242;DHT22;10279;46.388;8.116;2023-12-04T13:31:48;7.40;99.90
20242;DHT22;10279;46.388;8.116;2023-12-04T13:34:17;7.30;99.90
20242;DHT22;10279;46.388;8.116;2023-12-04T13:36:44;7.10;99.90
20242;DHT22;10279;46.388;8.116;2023-12-04T13:39:12;7.00;99.90
20242;DHT22;10279;46.388;8.116;2023-12-04T13:41:54;6.90;99.90
20242;DHT22;10279;46.388;8.116;2023-12-04T13:44:40;6.70;99.90
20242;DHT22;10279;46.388;8.116;2023-12-04T13:47:08;6.50;99.90
20242;DHT22;10279;46.388;8.116;2023-12-04T13:49:35;6.40;99.90
20242;DHT22;10279;46.388;8.116;2023-12-04T13:52:02;6.30;99.90
20242;DHT22;10279;46.388;8.116;2023-12-04T13:54:34;6.10;99.90
20242;DHT22;10279;46.388;8.116;2023-12-04T13:57:11;6.00;99.90
20242;DHT22;10279;46.388;8.116;2023-12-04T13:59:45;6.00;99.90
20242;DHT22;10279;46.388;8.116;2023-12-04T14:02:13;5.80;99.90
20242;DHT22;10279;46.388;8.116;2023-12-04T14:04:41;5.80;99.90
20242;DHT22;10279;46.388;8.116;2023-12-04T14:07:09;5.70;99.90
20242;DHT22;10279;46.388;8.116;2023-12-04T14:09:39;5.60;99.90
20242;DHT22;10279;46.388;8.116;2023-12-04T14:12:07;5.50;99.90
20242;DHT22;10279;46.388;8.116;2023-12-04T14:14:35;5.50;99.90
20242;DHT22;10279;46.388;8.116;2023-12-04T14:17:03;5.40;99.90
20242;DHT22;10279;46.388;8.116;2023-12-04T14:19:31;5.40;99.90
20242;DHT22;10279;46.388;8.116;2023-12-04T14:21:58;5.30;99.90
20242;DHT22;10279;46.388;8.116;2023-12-04T14:24:26;5.30;99.90
20242;DHT22;10279;46.388;8.116;2023-12-04T14:26:53;5.20;99.90
20242;DHT22;10279;46.388;8.116;2023-12-04T14:29:20;5.20;99.90
20242;DHT22;10279;46.388;8.116;2023-12-04T14:31:47;5.10;99.90
20242;DHT22;10279;46.388;8.116;2023-12-04T14:34:14;5.00;99.90
20242;DHT22;10279;46.388;8.116;2023-12-04T14:36:42;5.00;99.90
20242;DHT22;10279;46.388;8.116;2023-12-04T14:39:09;4.90;99.90
20242;DHT22;10279;46.388;8.116;2023-12-04T14:41:37;4.80;99.90
20242;DHT22;10279;46.388;8.116;2023-12-04T14:44:04;4.70;99.90
20242;DHT22;10279;46.388;8.116;2023-12-04T14:46:32;4.70;99.90
20242;DHT22;10279;46.388;8.116;2023-12-04T14:48:59;4.60;99.90
20242;DHT22;10279;46.388;8.116;2023-12-04T14:51:27;4.60;99.90
20242;DHT22;10279;46.388;8.116;2023-12-04T14:53:54;4.50;99.90
20242;DHT22;10279;46.388;8.116;2023-12-04T14:56:43;4.50;99.90
20242;DHT22;10279;46.388;8.116;2023-12-04T14:59:28;4.40;99.90
20242;DHT22;10279;46.388;8.116;2023-12-04T15:02:14;4.30;99.90
20242;DHT22;10279;46.388;8.116;2023-12-04T15:05:01;4.30;99.90
20242;DHT22;10279;46.388;8.116;2023-12-04T15:07:31;4.20;99.90
20242;DHT22;10279;46.388;8.116;2023-12-04T15:10:11;4.10;99.90
20242;DHT22;10279;46.388;8.116;2023-12-04T15:12:57;4.10;99.90
20242;DHT22;10279;46.388;8.116;2023-12-04T15:15:43;4.10;99.90
20242;DHT22;10279;46.388;8.116;2023-12-04T15:18:12;4.00;99.90
20242;DHT22;10279;46.388;8.116;2023-12-04T15:20:58;4.00;99.90
20242;DHT22;10279;46.388;8.116;2023-12-04T15:23:25;3.90;99.90
20242;DHT22;10279;46.388;8.116;2023-12-04T15:25:54;3.90;99.90
20242;DHT22;10279;46.388;8.116;2023-12-04T15:28:23;3.80;99.90
20242;DHT22;10279;46.388;8.116;2023-12-04T15:30:50;3.90;99.90
20242;DHT22;10279;46.388;8.116;2023-12-04T15:33:17;3.80;99.90
20242;DHT22;10279;46.388;8.116;2023-12-04T15:35:45;3.80;99.90
20242;DHT22;10279;46.388;8.116;2023-12-04T15:38:12;3.80;99.90
20242;DHT22;10279;46.388;8.116;2023-12-04T15:40:39;3.80;99.90
20242;DHT22;10279;46.388;8.116;2023-12-04T15:43:06;3.80;99.90
20242;DHT22;10279;46.388;8.116;2023-12-04T15:45:33;3.80;99.90
20242;DHT22;10279;46.388;8.116;2023-12-04T15:48:00;3.80;99.90
20242;DHT22;10279;46.388;8.116;2023-12-04T15:50:28;3.80;99.90
20242;DHT22;10279;46.388;8.116;2023-12-04T15:52:58;3.70;99.90